Time;durP1;ratioP1;P1;durP2;ratioP2;P2;SDS_P1;SDS_P2;PMS_P1;PMS_P2;Temp;Humidity;BMP_temperature;BMP_pressure;BME280_temperature;BME280_humidity;BME280_pressure;Samples;Min_cycle;Max_cycle;Signal;HPM_P1;HPM_P2
2022/06/29 00:00:27;;;;;;;2.05;1.95;;;;;;;36.38;28.64;98465.94;5076611;28;20112;-76
2022/06/29 00:02:54;;;;;;;2.97;2.78;;;;;;;36.35;28.38;98455.50;5076793;28;20028;-76
2022/06/29 00:05:22;;;;;;;3.17;2.88;;;;;;;35.94;29.11;98463.47;5076443;28;20119;-76
2022/06/29 00:07:49;;;;;;;3.45;3.15;;;;;;;35.45;29.54;98452.34;5088840;28;20464;-76
2022/06/29 00:10:16;;;;;;;3.17;2.65;;;;;;;35.17;29.87;98457.72;5078376;28;20085;-76
2022/06/29 00:12:44;;;;;;;2.03;1.92;;;;;;;35.34;29.73;98457.91;5097328;28;20020;-76
2022/06/29 00:15:11;;;;;;;2.90;2.22;;;;;;;35.81;29.09;98453.72;5096975;28;20043;-76
2022/06/29 00:17:38;;;;;;;3.25;2.08;;;;;;;36.18;28.49;98454.59;5096909;28;20545;-76
2022/06/29 00:20:07;;;;;;;6.28;2.45;;;;;;;36.18;28.57;98453.78;5096404;28;20039;-76
2022/06/29 00:22:35;;;;;;;2.38;2.17;;;;;;;35.76;29.32;98445.88;5096586;28;20036;-76
2022/06/29 00:25:02;;;;;;;2.67;2.42;;;;;;;35.33;29.70;98442.88;5096915;28;20031;-76
2022/06/29 00:27:28;;;;;;;2.47;2.28;;;;;;;35.20;30.08;98442.47;5094814;28;20379;-76
2022/06/29 00:29:54;;;;;;;3.80;2.53;;;;;;;35.03;30.51;98443.56;5096580;28;20103;-76
2022/06/29 00:32:20;;;;;;;2.17;2.08;;;;;;;35.34;29.88;98447.28;5096326;28;20531;-76
2022/06/29 00:34:46;;;;;;;5.05;2.65;;;;;;;35.39;30.03;98440.84;5082560;28;20058;-76
2022/06/29 00:37:13;;;;;;;6.72;2.75;;;;;;;35.14;30.71;98435.91;5076292;28;20020;-77
2022/06/29 00:39:39;;;;;;;5.07;2.88;;;;;;;35.24;30.75;98433.69;5076024;28;20031;-76
2022/06/29 00:42:05;;;;;;;2.95;2.70;;;;;;;35.49;30.04;98434.97;5076203;28;20036;-76
2022/06/29 00:44:31;;;;;;;2.78;2.20;;;;;;;35.72;29.68;98423.28;5080136;28;20476;-76
2022/06/29 00:47:00;;;;;;;2.15;2.05;;;;;;;35.65;29.57;98420.88;5078161;28;20475;-76
2022/06/29 00:49:29;;;;;;;2.97;2.75;;;;;;;35.24;30.08;98410.84;5095907;28;20024;-76
2022/06/29 00:52:08;;;;;;;2.95;2.35;;;;;;;35.07;30.65;98413.50;5096251;28;20032;-76
2022/06/29 00:54:41;;;;;;;3.30;2.35;;;;;;;35.38;30.14;98405.00;5096120;28;20024;-76
2022/06/29 00:57:17;;;;;;;2.15;2.05;;;;;;;35.80;29.78;98409.31;5096206;28;20043;-77
2022/06/29 00:59:47;;;;;;;2.15;1.95;;;;;;;35.99;29.32;98407.66;5084439;28;20048;-76
2022/06/29 01:02:16;;;;;;;1.92;1.83;;;;;;;36.08;29.50;98409.56;5085370;28;20035;-76
2022/06/29 01:04:44;;;;;;;2.63;2.42;;;;;;;36.27;28.89;98408.63;5095781;28;20114;-76
2022/06/29 01:07:13;;;;;;;2.53;2.30;;;;;;;36.28;29.02;98397.97;5095870;28;20123;-76
2022/06/29 01:09:39;;;;;;;2.75;2.53;;;;;;;35.92;29.48;98400.31;5095616;28;20028;-76
2022/06/29 01:12:06;;;;;;;3.38;2.83;;;;;;;35.73;29.96;98398.34;5095814;28;20032;-77
2022/06/29 01:14:32;;;;;;;2.67;2.58;;;;;;;35.55;30.09;98399.47;5095866;28;20539;-76
2022/06/29 01:16:58;;;;;;;2.88;2.67;;;;;;;35.39;30.77;98382.94;5095556;28;20085;-76
2022/06/29 01:19:24;;;;;;;2.90;2.70;;;;;;;35.07;31.00;98382.09;5083408;28;20040;-76
2022/06/29 01:21:53;;;;;;;3.05;2.83;;;;;;;34.70;31.62;98369.72;5075306;28;20568;-76
2022/06/29 01:24:21;;;;;;;2.88;2.63;;;;;;;34.66;32.09;98366.28;5075225;28;20037;-76
2022/06/29 01:26:48;;;;;;;3.40;2.60;;;;;;;35.20;30.61;98364.56;5075498;28;20426;-77
2022/06/29 01:29:15;;;;;;;2.78;2.17;;;;;;;35.62;29.95;98353.31;5094066;28;20024;-77
2022/06/29 01:31:42;;;;;;;2.47;2.28;;;;;;;35.98;29.60;98351.78;5094997;28;20032;-77
2022/06/29 01:34:08;;;;;;;4.10;2.35;;;;;;;36.12;29.41;98353.69;5076138;28;20024;-76
2022/06/29 01:36:35;;;;;;;2.38;2.17;;;;;;;35.96;29.68;98355.13;5088306;28;20058;-76
2022/06/29 01:39:01;;;;;;;4.70;2.55;;;;;;;35.77;29.73;98341.75;5095202;28;20031;-76
2022/06/29 01:41:28;;;;;;;2.38;1.92;;;;;;;35.63;29.96;98346.31;5095328;28;20098;-77
2022/06/29 01:43:54;;;;;;;2.13;2.00;;;;;;;35.78;29.52;98349.78;5095248;28;20031;-77
2022/06/29 01:46:20;;;;;;;2.08;1.98;;;;;;;36.17;29.37;98355.03;5094919;28;20035;-76
2022/06/29 01:48:46;;;;;;;2.17;2.03;;;;;;;36.44;28.94;98357.25;5095194;28;20057;-76
2022/06/29 01:51:12;;;;;;;3.75;2.42;;;;;;;36.52;29.07;98353.44;5095058;28;20483;-76
2022/06/29 01:53:38;;;;;;;4.40;2.67;;;;;;;36.54;28.93;98361.47;5080689;28;20044;-77
2022/06/29 01:56:06;;;;;;;4.70;2.78;;;;;;;36.65;28.58;98368.03;5074617;28;20040;-77
2022/06/29 01:58:32;;;;;;;4.80;2.83;;;;;;;36.83;28.64;98371.75;5074300;28;20041;-76
2022/06/29 02:00:59;;;;;;;2.65;2.45;;;;;;;36.89;28.23;98378.28;5074334;28;20040;-77
2022/06/29 02:03:25;;;;;;;2.80;2.60;;;;;;;36.86;28.94;98377.22;5074459;28;20476;-77
2022/06/29 02:05:51;;;;;;;2.72;2.50;;;;;;;36.71;28.75;98374.56;5074669;28;20383;-77
2022/06/29 02:08:17;;;;;;;3.53;3.22;;;;;;;36.51;28.78;98373.94;5074343;28;20527;-77
2022/06/29 02:10:43;;;;;;;2.67;2.50;;;;;;;35.86;30.03;98372.97;5070310;28;20051;-77
2022/06/29 02:13:09;;;;;;;4.88;2.47;;;;;;;35.65;30.17;98363.72;5081512;28;20082;-77
2022/06/29 02:15:35;;;;;;;2.83;2.63;;;;;;;35.49;30.78;98350.06;5093822;28;20024;-77
2022/06/29 02:18:02;;;;;;;3.40;2.90;;;;;;;35.30;31.01;98340.28;5094617;28;20043;-76
2022/06/29 02:20:28;;;;;;;2.83;2.63;;;;;;;35.34;31.10;98335.13;5094540;28;20025;-77
2022/06/29 02:22:55;;;;;;;2.85;2.58;;;;;;;35.54;30.58;98337.94;5094578;28;20077;-76
2022/06/29 02:25:21;;;;;;;3.03;2.83;;;;;;;36.01;29.60;98342.22;5094469;28;20097;-76
2022/06/29 02:27:47;;;;;;;2.60;2.40;;;;;;;36.39;29.14;98353.06;5091687;28;20044;-77
2022/06/29 02:30:15;;;;;;;2.22;2.13;;;;;;;36.58;28.95;98353.44;5094099;28;20056;-77
2022/06/29 02:35:28;;;;;;;5.15;3.13;;;;;;;36.26;29.38;98346.22;5091943;28;20050;-76
2022/06/29 02:37:55;;;;;;;2.42;2.22;;;;;;;36.22;29.68;98349.34;5093838;28;20028;-76
2022/06/29 02:40:21;;;;;;;2.40;2.20;;;;;;;36.53;28.74;98348.47;5093042;28;20472;-76
2022/06/29 02:42:47;;;;;;;3.08;2.80;;;;;;;36.56;29.18;98350.31;5073706;28;20055;-76
2022/06/29 02:45:13;;;;;;;2.95;2.53;;;;;;;36.16;29.41;98347.72;5092228;28;20024;-77
2022/06/29 02:47:39;;;;;;;5.68;2.83;;;;;;;35.41;30.77;98335.44;5094315;28;20028;-77
2022/06/29 02:50:06;;;;;;;3.58;3.35;;;;;;;34.86;31.65;98337.75;5094176;28;20032;-77
2022/06/29 02:52:32;;;;;;;3.45;2.63;;;;;;;35.02;31.89;98339.22;5093861;28;20040;-76
2022/06/29 02:54:58;;;;;;;3.10;2.33;;;;;;;35.67;30.48;98343.22;5075672;28;20380;-76
2022/06/29 02:57:24;;;;;;;2.60;2.40;;;;;;;36.20;29.31;98345.44;5093675;28;20056;-77
2022/06/29 02:59:51;;;;;;;4.63;2.63;;;;;;;36.12;29.78;98335.75;5081447;28;20028;-76
2022/06/29 03:02:17;;;;;;;3.40;3.15;;;;;;;35.53;30.56;98335.56;5091841;28;20114;-76
2022/06/29 03:04:43;;;;;;;2.90;2.67;;;;;;;35.42;30.79;98330.53;5093939;28;20388;-76
2022/06/29 03:07:09;;;;;;;2.70;2.50;;;;;;;35.54;30.48;98337.94;5091889;28;20040;-76
2022/06/29 03:09:35;;;;;;;2.42;2.33;;;;;;;35.74;30.18;98334.97;5082028;28;20086;-76
2022/06/29 03:12:01;;;;;;;2.63;2.28;;;;;;;36.22;29.57;98337.13;5093598;28;20490;-77
2022/06/29 03:14:27;;;;;;;2.70;2.50;;;;;;;36.48;29.31;98344.28;5093264;28;20451;-76
2022/06/29 03:16:53;;;;;;;3.28;2.67;;;;;;;36.66;28.99;98340.22;5092710;28;20024;-77
2022/06/29 03:19:20;;;;;;;6.82;2.83;;;;;;;36.84;28.51;98334.00;5091721;28;20031;-76
2022/06/29 03:21:46;;;;;;;4.25;2.05;;;;;;;36.87;28.28;98337.94;5093704;28;20035;-76
2022/06/29 03:24:12;;;;;;;3.78;2.95;;;;;;;36.86;28.21;98337.13;5093361;28;20360;-76
2022/06/29 03:26:38;;;;;;;2.95;2.40;;;;;;;36.43;28.53;98333.56;5092329;28;20545;-77
2022/06/29 03:29:04;;;;;;;4.35;2.90;;;;;;;34.59;31.47;98324.72;5093049;28;20063;-76
2022/06/29 03:31:30;;;;;;;3.88;3.58;;;;;;;33.63;33.48;98308.06;5074869;28;20021;-76
2022/06/29 03:33:58;;;;;;;2.85;2.65;;;;;;;33.84;33.16;98303.97;5073563;28;20111;-77
2022/06/29 03:36:24;;;;;;;3.38;3.08;;;;;;;34.25;32.75;98302.75;5092284;28;20016;-76
2022/06/29 03:38:50;;;;;;;3.15;2.85;;;;;;;34.33;32.66;98297.41;5093284;28;20089;-76
2022/06/29 03:41:16;;;;;;;3.35;3.05;;;;;;;33.12;34.33;98299.91;5093199;28;20103;-76
2022/06/29 03:43:42;;;;;;;4.32;3.92;;;;;;;32.46;35.34;98310.78;5093098;28;20440;-76
2022/06/29 03:46:08;;;;;;;5.15;4.38;;;;;;;32.43;35.46;98314.59;5093031;28;20025;-76
2022/06/29 03:48:34;;;;;;;4.55;4.10;;;;;;;32.90;34.52;98314.53;5075108;28;20407;-76
2022/06/29 03:51:00;;;;;;;4.43;3.92;;;;;;;33.23;33.73;98309.47;5092180;28;20054;-76
2022/06/29 03:53:26;;;;;;;4.72;4.32;;;;;;;33.07;34.05;98307.09;5073678;28;20044;-76
2022/06/29 03:55:53;;;;;;;3.40;3.20;;;;;;;33.66;33.43;98309.91;5072713;28;20488;-77
2022/06/29 03:58:19;;;;;;;3.72;3.42;;;;;;;33.84;33.18;98310.44;5072729;28;20400;-76
2022/06/29 04:00:45;;;;;;;3.97;3.67;;;;;;;32.89;34.39;98312.94;5072820;28;20020;-76
2022/06/29 04:03:11;;;;;;;4.70;4.22;;;;;;;33.28;34.22;98311.59;5071730;28;20033;-76
2022/06/29 04:05:38;;;;;;;4.30;3.65;;;;;;;33.46;33.89;98304.91;5072623;28;20029;-76
2022/06/29 04:08:04;;;;;;;3.42;3.13;;;;;;;32.79;34.64;98305.78;5073033;28;20590;-76
2022/06/29 04:10:30;;;;;;;6.53;3.90;;;;;;;33.10;34.47;98306.13;5092479;28;20043;-76
2022/06/29 04:12:56;;;;;;;4.15;3.83;;;;;;;33.47;34.08;98300.00;5092905;28;20122;-76
2022/06/29 04:15:23;;;;;;;4.70;4.28;;;;;;;32.32;35.33;98295.28;5092730;28;20064;-76
2022/06/29 04:17:49;;;;;;;5.28;4.72;;;;;;;32.83;34.52;98297.06;5092803;28;20115;-76
2022/06/29 04:23:01;;;;;;;4.55;4.10;;;;;;;32.13;36.22;98293.03;5093267;28;20109;-76
2022/06/29 04:25:28;;;;;;;5.93;5.43;;;;;;;31.53;37.10;98302.50;5087136;28;20090;-76
2022/06/29 04:27:55;;;;;;;4.80;4.30;;;;;;;32.49;36.81;98285.03;5107946;28;20533;-76
2022/06/29 04:30:21;;;;;;;4.90;3.80;;;;;;;32.20;36.35;98284.16;5073062;28;20074;-76
2022/06/29 04:32:47;;;;;;;7.20;6.07;;;;;;;32.14;36.98;98286.09;5088678;28;20032;-76
2022/06/29 04:35:13;;;;;;;5.10;4.60;;;;;;;32.88;36.03;98287.84;5092732;28;20075;-76
2022/06/29 04:37:39;;;;;;;6.38;5.63;;;;;;;32.41;36.70;98285.88;5094193;28;20484;-76
2022/06/29 04:40:06;;;;;;;5.95;4.65;;;;;;;32.98;36.24;98292.16;5096207;28;20024;-76
2022/06/29 04:42:32;;;;;;;5.10;4.60;;;;;;;33.21;35.61;98292.06;5091485;28;20115;-76
2022/06/29 04:44:58;;;;;;;6.22;4.20;;;;;;;34.07;34.16;98303.81;5075861;28;20040;-76
2022/06/29 04:47:24;;;;;;;7.55;5.65;;;;;;;32.94;35.87;98298.03;5075956;28;20032;-76
2022/06/29 04:49:50;;;;;;;8.13;5.30;;;;;;;33.65;34.38;98291.25;5075977;28;20033;-76
2022/06/29 04:52:16;;;;;;;5.70;5.15;;;;;;;33.51;34.84;98292.03;5076161;28;20035;-76
2022/06/29 04:54:42;;;;;;;5.57;4.97;;;;;;;33.42;35.11;98299.41;5075730;28;20033;-77
2022/06/29 04:57:08;;;;;;;5.20;4.78;;;;;;;34.60;32.98;98303.47;5075524;28;20036;-77
2022/06/29 04:59:35;;;;;;;5.35;4.93;;;;;;;34.90;31.88;98304.06;5076527;28;20048;-76
2022/06/29 05:02:01;;;;;;;6.10;5.00;;;;;;;34.95;32.17;98299.69;5075674;28;20037;-76
2022/06/29 05:04:27;;;;;;;4.43;4.03;;;;;;;36.32;30.35;98299.19;5075873;28;20098;-76
2022/06/29 05:06:53;;;;;;;3.95;3.65;;;;;;;36.18;31.01;98299.38;5075923;28;20043;-76
2022/06/29 05:09:19;;;;;;;4.78;3.17;;;;;;;36.78;29.70;98292.38;5075372;28;20051;-76
2022/06/29 05:11:45;;;;;;;5.80;4.85;;;;;;;36.51;29.65;98300.34;5078790;28;20103;-77
2022/06/29 05:14:12;;;;;;;5.22;4.80;;;;;;;35.37;31.77;98294.13;5066031;28;20442;-77
2022/06/29 05:16:38;;;;;;;6.00;3.67;;;;;;;36.27;30.61;98299.94;5093163;28;20043;-77
2022/06/29 05:19:04;;;;;;;4.32;3.95;;;;;;;35.53;31.53;98304.94;5095488;28;20038;-77
2022/06/29 05:21:30;;;;;;;4.53;4.13;;;;;;;35.90;31.51;98297.13;5095572;28;20024;-76
2022/06/29 05:23:57;;;;;;;4.72;4.20;;;;;;;36.38;30.68;98302.09;5077600;28;20032;-77
2022/06/29 05:26:24;;;;;;;3.35;3.05;;;;;;;37.02;29.06;98298.41;5093850;28;20036;-77
2022/06/29 05:28:51;;;;;;;3.25;3.05;;;;;;;37.10;28.70;98299.47;5090347;28;20033;-77
2022/06/29 05:31:17;;;;;;;3.70;3.40;;;;;;;37.47;29.26;98293.53;5078638;28;20506;-77
2022/06/29 05:33:44;;;;;;;4.00;3.60;;;;;;;37.60;28.36;98299.53;5088508;28;20472;-77
2022/06/29 05:36:11;;;;;;;4.72;4.32;;;;;;;37.14;29.04;98306.50;5075474;28;20150;-76
2022/06/29 05:38:38;;;;;;;3.20;3.00;;;;;;;37.68;29.31;98300.53;5074820;28;20485;-77
2022/06/29 05:41:05;;;;;;;3.10;2.85;;;;;;;37.70;28.88;98300.78;5074904;28;20028;-76
2022/06/29 05:43:31;;;;;;;4.00;3.30;;;;;;;38.12;28.15;98305.44;5074951;28;20028;-77
2022/06/29 05:45:58;;;;;;;2.72;2.53;;;;;;;38.36;28.13;98299.91;5074940;28;20048;-77
2022/06/29 05:48:24;;;;;;;3.00;2.80;;;;;;;38.82;27.42;98308.56;5074308;28;20055;-77
2022/06/29 05:50:50;;;;;;;3.83;3.25;;;;;;;37.86;27.94;98302.88;5081042;28;20480;-77
2022/06/29 05:53:16;;;;;;;2.53;2.28;;;;;;;38.14;27.63;98297.84;5094777;28;20028;-77
2022/06/29 05:55:43;;;;;;;2.88;2.67;;;;;;;38.47;26.51;98294.13;5094986;28;20059;-78
2022/06/29 05:58:11;;;;;;;3.42;3.13;;;;;;;37.57;28.56;98291.97;5094813;28;20055;-77
2022/06/29 06:00:37;;;;;;;3.83;3.35;;;;;;;37.53;28.57;98294.31;5095129;28;20036;-77
2022/06/29 06:03:03;;;;;;;2.50;2.30;;;;;;;38.17;27.91;98296.81;5087109;28;20040;-77
2022/06/29 06:05:29;;;;;;;3.25;3.05;;;;;;;38.32;27.15;98296.53;5074496;28;20021;-77
2022/06/29 06:07:55;;;;;;;2.72;2.53;;;;;;;38.44;27.21;98300.94;5077200;28;20055;-77
2022/06/29 06:10:21;;;;;;;3.10;2.85;;;;;;;37.90;28.66;98303.41;5085535;28;20021;-77
2022/06/29 06:12:47;;;;;;;3.75;3.45;;;;;;;36.89;29.20;98300.97;5074240;28;20485;-77
2022/06/29 06:15:13;;;;;;;2.88;2.67;;;;;;;36.81;29.48;98314.25;5074321;28;20028;-77
2022/06/29 06:17:40;;;;;;;4.10;3.80;;;;;;;36.34;30.03;98310.91;5080197;28;20027;-77
2022/06/29 06:20:06;;;;;;;3.30;3.10;;;;;;;37.23;28.73;98311.19;5094362;28;20099;-77
2022/06/29 06:22:32;;;;;;;3.47;3.17;;;;;;;37.26;28.36;98310.94;5090879;28;20057;-77
2022/06/29 06:24:58;;;;;;;4.00;3.65;;;;;;;37.19;28.87;98305.75;5081771;28;20024;-77
2022/06/29 06:27:24;;;;;;;3.40;3.20;;;;;;;37.62;27.87;98300.56;5075894;28;20058;-77
2022/06/29 06:29:50;;;;;;;6.28;3.75;;;;;;;37.25;27.94;98297.16;5074168;28;20027;-77
2022/06/29 06:32:17;;;;;;;3.17;2.88;;;;;;;37.74;27.80;98301.34;5073880;28;20205;-77
2022/06/29 06:34:43;;;;;;;4.90;3.22;;;;;;;38.16;27.40;98303.09;5055907;28;20384;-77
2022/06/29 06:37:09;;;;;;;3.30;3.10;;;;;;;37.89;27.68;98299.75;5073915;28;20434;-76
2022/06/29 06:39:35;;;;;;;3.95;3.65;;;;;;;36.45;29.62;98307.34;5074050;28;20027;-77
2022/06/29 06:42:02;;;;;;;4.13;3.83;;;;;;;35.81;30.56;98297.34;5082181;28;20551;-77
2022/06/29 06:44:28;;;;;;;4.45;4.05;;;;;;;36.35;31.18;98297.41;5094012;28;20024;-77
2022/06/29 06:46:54;;;;;;;5.72;4.95;;;;;;;36.35;30.51;98298.19;5093859;28;20062;-77
2022/06/29 06:49:23;;;;;;;4.38;4.07;;;;;;;36.98;30.32;98289.31;5093965;28;20028;-77
2022/06/29 06:51:52;;;;;;;4.85;4.45;;;;;;;35.94;30.82;98291.97;5093880;28;20039;-77
2022/06/29 06:54:19;;;;;;;4.78;4.45;;;;;;;35.74;31.17;98289.25;5094052;28;20080;-77
2022/06/29 06:56:45;;;;;;;5.00;4.60;;;;;;;35.04;32.42;98293.84;5093753;28;20120;-77
2022/06/29 06:59:11;;;;;;;7.30;6.50;;;;;;;34.91;33.00;98284.88;5083400;28;20562;-77
2022/06/29 07:01:37;;;;;;;5.22;4.72;;;;;;;35.17;32.98;98286.44;5073576;28;20040;-77
2022/06/29 07:04:05;;;;;;;4.57;4.18;;;;;;;36.56;31.02;98279.56;5073142;28;20025;-77
2022/06/29 07:06:31;;;;;;;7.70;5.78;;;;;;;35.24;31.58;98285.22;5073338;28;20036;-77
2022/06/29 07:08:57;;;;;;;5.22;4.82;;;;;;;35.77;32.03;98284.59;5073362;28;20028;-77
2022/06/29 07:11:23;;;;;;;4.88;4.47;;;;;;;37.27;31.04;98271.63;5073726;28;20025;-77
2022/06/29 07:13:49;;;;;;;7.03;5.72;;;;;;;35.74;31.29;98269.25;5073292;28;20117;-77
2022/06/29 07:16:15;;;;;;;5.28;4.88;;;;;;;37.41;29.97;98269.84;5083420;28;20027;-77
2022/06/29 07:18:42;;;;;;;5.18;4.78;;;;;;;38.56;27.36;98271.63;5093419;28;20032;-77
2022/06/29 07:21:08;;;;;;;4.90;4.50;;;;;;;39.16;26.74;98266.84;5093180;28;20044;-77
2022/06/29 07:23:34;;;;;;;5.32;4.47;;;;;;;38.75;27.26;98277.56;5093451;28;20024;-77
2022/06/29 07:26:00;;;;;;;5.57;5.07;;;;;;;38.49;27.00;98275.06;5076501;28;20117;-77
2022/06/29 07:28:26;;;;;;;4.68;4.28;;;;;;;37.93;27.73;98267.94;5073290;28;20040;-77
2022/06/29 07:30:52;;;;;;;4.05;3.75;;;;;;;37.75;27.53;98262.75;5073733;28;20437;-77
2022/06/29 07:33:18;;;;;;;5.03;4.53;;;;;;;37.02;28.68;98264.84;5056992;28;20028;-77
2022/06/29 07:35:44;;;;;;;3.72;3.42;;;;;;;37.87;28.92;98261.44;5073242;28;20039;-77
2022/06/29 07:38:10;;;;;;;3.97;3.67;;;;;;;38.58;26.92;98253.91;5073058;28;20036;-77
2022/06/29 07:40:36;;;;;;;4.47;4.07;;;;;;;37.54;28.13;98255.75;5055389;28;20028;-77
2022/06/29 07:43:03;;;;;;;4.28;3.97;;;;;;;36.31;30.50;98256.81;5073300;28;20060;-77
2022/06/29 07:45:29;;;;;;;6.32;4.88;;;;;;;36.29;30.85;98256.56;5072823;28;20056;-77
2022/06/29 07:47:55;;;;;;;6.43;5.80;;;;;;;36.03;30.73;98259.56;5072722;28;20037;-77
2022/06/29 07:50:21;;;;;;;5.40;5.00;;;;;;;36.48;30.71;98254.84;5099697;28;20055;-77
2022/06/29 07:52:47;;;;;;;6.30;5.75;;;;;;;37.28;29.51;98253.91;5093028;28;20445;-77
2022/06/29 07:55:13;;;;;;;5.30;4.80;;;;;;;36.74;30.51;98243.97;5093015;28;20032;-77
2022/06/29 07:57:39;;;;;;;6.45;5.63;;;;;;;35.58;31.16;98247.06;5092725;28;20093;-77
2022/06/29 08:00:06;;;;;;;6.20;5.75;;;;;;;35.63;30.91;98260.59;5093784;28;20040;-77
2022/06/29 08:02:32;;;;;;;5.57;5.13;;;;;;;35.54;31.30;98257.94;5089556;28;20024;-77
2022/06/29 08:05:00;;;;;;;6.15;5.55;;;;;;;36.01;31.14;98253.59;5054863;28;20028;-77
2022/06/29 08:07:26;;;;;;;6.13;5.57;;;;;;;35.42;32.45;98253.41;5084992;28;20498;-77
2022/06/29 08:09:55;;;;;;;5.22;4.82;;;;;;;35.89;32.09;98252.72;5092771;28;20035;-77
2022/06/29 08:12:21;;;;;;;6.53;5.82;;;;;;;35.62;31.26;98252.53;5094133;28;20034;-77
2022/06/29 08:14:48;;;;;;;6.68;6.07;;;;;;;35.40;32.04;98250.28;5086955;28;20029;-77
2022/06/29 08:17:14;;;;;;;6.60;6.00;;;;;;;35.90;31.37;98245.69;5074991;28;20021;-77
2022/06/29 08:19:40;;;;;;;6.35;5.75;;;;;;;36.80;30.27;98241.13;5076562;28;20032;-77
2022/06/29 08:22:06;;;;;;;6.80;6.10;;;;;;;36.28;30.59;98237.81;5076432;28;20056;-77
2022/06/29 08:24:32;;;;;;;5.65;5.18;;;;;;;37.84;27.77;98230.97;5088653;28;20036;-77
2022/06/29 08:26:59;;;;;;;6.18;5.57;;;;;;;37.96;28.36;98230.41;5096420;28;20072;-77
2022/06/29 08:29:26;;;;;;;4.97;4.45;;;;;;;37.94;27.53;98220.78;5096914;28;20459;-77
2022/06/29 08:31:52;;;;;;;4.70;4.28;;;;;;;38.09;28.30;98221.22;5096704;28;20024;-77
2022/06/29 08:34:21;;;;;;;5.55;4.90;;;;;;;38.88;27.63;98208.06;5096625;28;20040;-77
2022/06/29 08:36:47;;;;;;;5.00;4.60;;;;;;;38.47;28.04;98210.88;5096722;28;20560;-77
2022/06/29 08:39:13;;;;;;;6.72;5.25;;;;;;;36.62;30.60;98208.03;5096687;28;20032;-77
2022/06/29 08:41:41;;;;;;;5.32;4.85;;;;;;;37.02;30.85;98204.72;5063996;28;20491;-77
2022/06/29 08:44:07;;;;;;;5.75;5.18;;;;;;;36.62;31.72;98205.94;5076120;28;20032;-77
2022/06/29 08:46:33;;;;;;;5.00;4.60;;;;;;;37.46;29.96;98201.06;5075984;28;20028;-77
2022/06/29 08:49:01;;;;;;;5.25;4.30;;;;;;;38.86;27.50;98193.44;5091656;28;20071;-77
2022/06/29 08:51:34;;;;;;;4.50;4.10;;;;;;;39.24;26.81;98201.75;5076155;28;20082;-77
2022/06/29 08:54:03;;;;;;;4.80;4.38;;;;;;;37.90;28.53;98203.81;5075880;28;20477;-77
2022/06/29 08:56:31;;;;;;;5.35;4.95;;;;;;;38.08;28.88;98210.28;5075777;28;20102;-77
2022/06/29 08:59:00;;;;;;;4.93;4.53;;;;;;;39.05;27.41;98203.72;5091767;28;20091;-77
2022/06/29 09:01:27;;;;;;;5.45;4.95;;;;;;;38.40;28.03;98197.09;5096002;28;20024;-77
2022/06/29 09:03:54;;;;;;;4.88;4.50;;;;;;;38.56;27.55;98191.25;5081591;28;20024;-77
2022/06/29 09:06:20;;;;;;;4.97;4.57;;;;;;;39.66;25.84;98185.16;5076629;28;20380;-77
2022/06/29 09:08:46;;;;;;;4.50;3.47;;;;;;;40.41;24.72;98198.34;5076604;28;20038;-77
2022/06/29 09:11:28;;;;;;;4.45;3.85;;;;;;;39.99;25.83;98199.94;5086703;28;20141;-77
2022/06/29 09:14:33;;;;;;;4.68;4.28;;;;;;;39.10;25.47;98182.78;5075786;28;20132;-77
2022/06/29 09:17:01;;;;;;;4.03;3.72;;;;;;;39.03;26.37;98191.19;5033289;28;20037;-77
2022/06/29 09:19:44;;;;;;;4.38;4.05;;;;;;;39.92;25.93;98191.91;5051537;28;20052;-77
2022/06/29 09:22:11;;;;;;;4.55;4.15;;;;;;;40.13;24.91;98191.41;5075442;28;20031;-77
2022/06/29 09:24:37;;;;;;;4.47;3.78;;;;;;;40.64;25.79;98193.06;5074382;28;20389;-77
2022/06/29 09:27:08;;;;;;;4.50;4.18;;;;;;;39.33;26.31;98184.16;5075096;28;20040;-77
2022/06/29 09:29:39;;;;;;;4.63;3.88;;;;;;;39.13;27.75;98193.22;5074982;28;20032;-77
2022/06/29 09:32:08;;;;;;;4.00;3.70;;;;;;;39.92;27.04;98188.25;5084123;28;20103;-77
2022/06/29 09:34:51;;;;;;;4.03;3.70;;;;;;;39.97;27.98;98187.41;5095779;28;20032;-77
2022/06/29 09:37:26;;;;;;;3.67;3.40;;;;;;;41.08;25.39;98191.59;5095463;28;20058;-77
2022/06/29 09:39:54;;;;;;;4.88;3.65;;;;;;;41.62;24.58;98186.19;5095327;28;20078;-77
2022/06/29 09:42:25;;;;;;;3.92;3.63;;;;;;;41.45;24.86;98185.75;5095294;28;20024;-78
2022/06/29 09:44:52;;;;;;;4.43;4.03;;;;;;;40.56;24.94;98180.66;5094871;28;20463;-78
2022/06/29 09:47:20;;;;;;;4.43;4.13;;;;;;;39.97;26.31;98181.66;5095441;28;20040;-77
2022/06/29 09:49:48;;;;;;;4.20;3.88;;;;;;;40.76;25.45;98164.88;5079753;28;20086;-78
2022/06/29 09:52:15;;;;;;;4.45;4.15;;;;;;;40.29;26.22;98171.03;5074767;28;20063;-78
2022/06/29 09:54:55;;;;;;;4.72;4.38;;;;;;;38.45;27.12;98177.00;5075040;28;20040;-78
2022/06/29 09:57:29;;;;;;;3.80;3.50;;;;;;;39.65;27.15;98175.00;5074421;28;20048;-78
2022/06/29 10:02:51;;;;;;;4.05;3.80;;;;;;;40.47;25.47;98175.28;5074697;28;20059;-78
2022/06/29 10:05:23;;;;;;;4.65;3.75;;;;;;;39.89;25.52;98169.97;5076961;28;20028;-78
2022/06/29 10:07:54;;;;;;;3.53;3.33;;;;;;;40.09;26.26;98168.72;5095128;28;20058;-78
2022/06/29 10:10:30;;;;;;;5.65;5.15;;;;;;;39.10;28.03;98164.75;5094996;28;20081;-78
2022/06/29 10:16:36;;;;;;;4.22;3.92;;;;;;;40.83;25.43;98170.78;5094994;28;20100;-78
2022/06/29 10:19:24;;;;;;;4.72;4.22;;;;;;;39.80;26.69;98170.34;5095070;28;20039;-78
2022/06/29 10:21:50;;;;;;;5.25;4.78;;;;;;;40.27;27.33;98165.06;5080525;28;20028;-78
2022/06/29 10:24:19;;;;;;;4.20;3.90;;;;;;;40.24;26.76;98166.13;5092001;28;20052;-78
2022/06/29 10:26:47;;;;;;;4.68;4.28;;;;;;;39.83;26.51;98166.41;5094162;28;20072;-78
2022/06/29 10:29:19;;;;;;;5.32;4.85;;;;;;;38.98;28.53;98166.97;5094124;28;20028;-78
2022/06/29 10:31:51;;;;;;;5.57;5.18;;;;;;;37.53;29.24;98165.38;5075994;28;20374;-78
2022/06/29 10:34:37;;;;;;;6.78;5.88;;;;;;;37.49;29.29;98165.63;5094485;28;20032;-78
2022/06/29 10:37:11;;;;;;;6.55;5.78;;;;;;;38.30;28.13;98164.31;5094894;28;20040;-78
2022/06/29 10:39:49;;;;;;;6.22;5.63;;;;;;;38.38;28.50;98159.56;5088933;28;20488;-78
2022/06/29 10:45:13;;;;;;;8.07;4.80;;;;;;;39.50;27.41;98161.00;5074189;28;20137;-78
2022/06/29 10:47:39;;;;;;;5.10;4.78;;;;;;;39.28;28.12;98158.38;5073774;28;20381;-78
2022/06/29 10:50:19;;;;;;;4.47;4.13;;;;;;;40.29;25.46;98162.41;5073772;28;20036;-78
2022/06/29 10:52:48;;;;;;;5.05;4.55;;;;;;;39.60;27.49;98153.59;5073635;28;20463;-78
2022/06/29 10:55:16;;;;;;;5.43;4.87;;;;;;;39.52;27.47;98152.63;5055676;28;20058;-78
2022/06/29 10:57:43;;;;;;;6.80;5.25;;;;;;;38.50;28.69;98146.69;5087005;28;20068;-78
2022/06/29 11:00:16;;;;;;;5.90;5.40;;;;;;;39.13;28.51;98150.13;5093787;28;20035;-77
2022/06/29 11:02:44;;;;;;;5.25;4.85;;;;;;;39.29;27.06;98146.34;5088878;28;20040;-78
2022/06/29 11:05:11;;;;;;;4.80;4.45;;;;;;;40.71;24.78;98140.59;5073346;28;20029;-78
2022/06/29 11:12:01;;;;;;;4.88;4.47;;;;;;;39.68;26.64;98145.91;5073855;28;20102;-77
2022/06/29 11:13:32;;;;;;;4.95;4.55;;;;;;;39.31;27.10;98140.81;5076812;28;20040;-77
2022/06/29 11:16:00;;;;;;;5.47;5.07;;;;;;;39.59;27.71;98136.88;5090573;28;20030;-78
2022/06/29 11:18:31;;;;;;;5.68;5.20;;;;;;;39.16;27.60;98139.69;5086039;28;20044;-77
2022/06/29 11:21:03;;;;;;;5.80;5.22;;;;;;;38.59;28.28;98129.16;5075494;28;20025;-78
2022/06/29 11:23:31;;;;;;;6.45;5.85;;;;;;;38.39;28.87;98127.50;5073346;28;20115;-78
2022/06/29 11:25:58;;;;;;;6.45;5.85;;;;;;;38.83;28.08;98128.47;5072975;28;20029;-78
2022/06/29 11:28:30;;;;;;;5.60;5.10;;;;;;;39.47;28.23;98129.69;5073249;28;20040;-78
2022/06/29 11:31:04;;;;;;;5.47;5.07;;;;;;;39.87;26.37;98126.59;5080831;28;20385;-78
2022/06/29 11:33:36;;;;;;;5.05;4.72;;;;;;;40.25;26.42;98118.78;5093077;28;20167;-78
2022/06/29 11:36:11;;;;;;;5.28;4.50;;;;;;;40.96;26.35;98124.75;5093570;28;20056;-78
2022/06/29 11:38:42;;;;;;;6.07;5.47;;;;;;;39.75;27.30;98128.06;5075484;28;20111;-78
2022/06/29 11:41:16;;;;;;;5.75;5.28;;;;;;;39.33;27.99;98118.06;5093191;28;20073;-78
2022/06/29 11:43:43;;;;;;;6.68;5.78;;;;;;;38.45;28.69;98108.13;5093366;28;20032;-78
2022/06/29 11:46:20;;;;;;;6.63;6.05;;;;;;;37.92;29.62;98111.56;5108799;28;20032;-78
2022/06/29 11:51:35;;;;;;;6.43;5.93;;;;;;;38.76;29.29;98100.34;5077532;28;20051;-78
2022/06/29 11:54:06;;;;;;;6.85;6.15;;;;;;;39.50;27.50;98099.84;5077074;28;20039;-78
2022/06/29 11:56:33;;;;;;;5.88;5.28;;;;;;;40.11;27.26;98090.47;5076755;28;20024;-78